Univ of Pittsburgh, Pennsylvania
Current Conditions -  °F | °C
As of 4:53 PM on Monday 20 Oct 2014 (Local Time) from KAGC Reporting Station
Broken Clouds Broken Clouds  
Wind Chill: 56°   Ceiling: 11000
Heat Index: 56°   Visibility: 10mi
Dew Point: 39°   Wind: 8mph
Humidity: 53%   Direction: 160°SSE
Pressure: 29.88"   Gusts: NA
Location:  40.4441°N, 79.9544°W
Report Text: KAGC 202053Z 16007KT 10SM SCT085 BKN110 13/04 A2988 RMK AO2 SLP124 T01330039 57012
Loading
Personal Weather Stations






























Interactive Weather Map
Tropical Storm Tracking
New forecast layout! Learn more

10-Day Weather Forecast

Advertisements
Track Severe Weather on mobile